Agua Fria, New Mexico
Current Conditions -  °F | °C
As of 2:53 PM on Friday 28 Nov 2014 (Local Time) from KSAF Reporting Station
Clear Clear  
Wind Chill: 58°   Ceiling: Unl
Heat Index: 58°   Visibility: 10mi
Dew Point: 15°   Wind: 0mph
Humidity: 19%   Direction: NA
Pressure: 30.12"   Gusts: NA
Location:  35.7017°N, 105.921°W
Report Text: KSAF 282153Z 00000KT 10SM CLR 14/M09 A3012 RMK AO2 SLP164 T01441094
Loading
Personal Weather Stations






























Interactive Weather Map New forecast layout! Learn more

10-Day Weather Forecast

Advertisements
Track Severe Weather on mobile